createdAt,value
2023-05-02T00:02:51.101Z,0.55
2023-05-02T00:07:52.656Z,0.70
2023-05-02T00:12:54.067Z,0.73
2023-05-02T00:17:55.696Z,0.70
2023-05-02T00:22:57.370Z,0.60
2023-05-02T00:27:58.812Z,0.60
2023-05-02T00:33:00.306Z,0.82
2023-05-02T00:38:01.768Z,0.50
2023-05-02T00:43:03.142Z,0.70
2023-05-02T00:48:05.865Z,0.70
2023-05-02T00:53:07.833Z,0.90
2023-05-02T00:58:11.887Z,0.68
2023-05-02T01:03:20.940Z,0.70
2023-05-02T01:08:29.989Z,0.90
2023-05-02T01:13:33.514Z,0.60
2023-05-02T01:18:36.738Z,0.70
2023-05-02T01:23:57.467Z,0.80
2023-05-02T01:29:03.296Z,0.70
2023-05-02T01:34:06.631Z,0.40
2023-05-02T01:39:08.031Z,0.70
2023-05-02T01:44:09.402Z,0.73
2023-05-02T01:49:10.777Z,0.70
2023-05-02T01:54:13.335Z,0.70
2023-05-02T01:59:17.055Z,0.60
2023-05-02T02:04:19.355Z,0.80
2023-05-02T02:09:20.804Z,0.70
2023-05-02T02:14:25.043Z,0.70
2023-05-02T02:19:26.451Z,0.70
2023-05-02T02:24:27.887Z,0.70
2023-05-02T02:29:29.374Z,0.80
2023-05-02T02:34:30.760Z,0.90
2023-05-02T02:39:58.398Z,0.57
2023-05-02T02:45:18.442Z,0.60
2023-05-02T02:50:41.352Z,0.60
2023-05-02T02:55:49.644Z,0.88
2023-05-02T03:00:51.605Z,0.70
2023-05-02T03:05:52.985Z,0.60
2023-05-02T03:10:54.382Z,0.77
2023-05-02T03:16:15.916Z,0.80
2023-05-02T03:21:17.396Z,0.80
2023-05-02T03:26:18.763Z,0.60
2023-05-02T03:31:20.238Z,0.73
2023-05-02T03:36:22.100Z,0.60
2023-05-02T03:41:24.619Z,0.82
2023-05-02T03:46:26.059Z,0.80
2023-05-02T03:51:27.492Z,0.82
2023-05-02T03:56:28.862Z,0.60
2023-05-02T04:01:30.326Z,1.05
2023-05-02T04:06:32.391Z,0.80
2023-05-02T04:11:33.931Z,0.80
2023-05-02T04:16:35.415Z,0.80
2023-05-02T04:21:37.187Z,0.68
2023-05-02T04:26:38.578Z,0.63
2023-05-02T04:31:40.254Z,0.70
2023-05-02T04:36:41.863Z,0.60
2023-05-02T04:41:43.257Z,0.50
2023-05-02T04:46:44.824Z,0.70
2023-05-02T04:51:46.374Z,0.60
2023-05-02T04:56:47.938Z,0.57
2023-05-02T05:01:49.348Z,0.55
2023-05-02T05:06:51.214Z,0.43
2023-05-02T05:11:52.719Z,0.63
2023-05-02T05:16:54.143Z,0.50
2023-05-02T05:21:55.668Z,0.35
2023-05-02T05:26:57.069Z,0.40
2023-05-02T05:31:58.462Z,0.57
2023-05-02T05:37:00.332Z,0.40
2023-05-02T05:42:02.458Z,0.60
2023-05-02T05:47:03.865Z,0.60
2023-05-02T05:52:05.301Z,0.40
2023-05-02T05:57:06.803Z,0.47
2023-05-02T06:02:08.297Z,0.40
2023-05-02T06:07:09.730Z,0.40
2023-05-02T06:12:11.123Z,0.70
2023-05-02T06:17:12.537Z,0.77
2023-05-02T06:22:14.090Z,0.60
2023-05-02T06:27:15.461Z,0.68
2023-05-02T06:32:16.900Z,0.70
2023-05-02T06:37:18.270Z,0.73
2023-05-02T06:42:19.647Z,0.60
2023-05-02T06:47:21.935Z,0.90
2023-05-02T06:52:23.410Z,0.50
2023-05-02T06:57:24.925Z,1.17
2023-05-02T07:02:26.605Z,1.20
2023-05-02T07:07:27.994Z,1.30
2023-05-02T07:12:29.378Z,0.95
2023-05-02T07:17:31.261Z,0.85
2023-05-02T07:22:32.683Z,0.80
2023-05-02T07:27:34.083Z,0.82
2023-05-02T07:32:35.505Z,1.00
2023-05-02T07:37:37.360Z,1.00
2023-05-02T07:42:40.890Z,0.70
2023-05-02T07:47:42.335Z,0.60
2023-05-02T07:52:43.760Z,0.60
2023-05-02T07:57:45.260Z,0.40
2023-05-02T08:02:47.006Z,0.70
2023-05-02T08:07:48.464Z,0.60
2023-05-02T08:12:50.832Z,0.35
2023-05-02T08:17:52.309Z,0.40
2023-05-02T08:22:53.719Z,0.60
2023-05-02T08:27:55.086Z,0.82
2023-05-02T08:32:56.472Z,0.50
2023-05-02T08:37:57.878Z,0.40
2023-05-02T08:42:59.269Z,0.50
2023-05-02T08:48:00.672Z,0.70
2023-05-02T08:53:04.375Z,0.40
2023-05-02T08:58:06.282Z,0.60
2023-05-02T09:03:28.850Z,0.63
2023-05-02T09:08:30.320Z,0.40
2023-05-02T09:13:50.972Z,0.50
2023-05-02T09:18:57.069Z,0.38
2023-05-02T09:23:59.734Z,0.40
2023-05-02T09:29:02.183Z,0.70
2023-05-02T09:34:30.884Z,0.88
2023-05-02T09:39:32.596Z,0.82
2023-05-02T09:44:37.539Z,1.38
2023-05-02T09:49:45.834Z,0.80
2023-05-02T09:54:50.382Z,0.95
2023-05-02T09:59:58.042Z,0.80
2023-05-02T10:04:59.581Z,0.50
2023-05-02T10:10:01.072Z,0.40
2023-05-02T10:15:03.825Z,0.40
2023-05-02T10:20:06.960Z,0.50
2023-05-02T10:25:08.752Z,0.50
2023-05-02T10:30:10.362Z,0.35
2023-05-02T10:35:11.739Z,0.40
2023-05-02T10:40:13.192Z,0.40
2023-05-02T10:45:33.494Z,0.40
2023-05-02T10:50:51.460Z,0.40
2023-05-02T10:56:15.414Z,0.45
2023-05-02T11:01:37.458Z,0.60
2023-05-02T11:07:05.261Z,0.30
2023-05-02T11:12:07.048Z,0.40
2023-05-02T11:17:09.107Z,0.70
2023-05-02T11:22:20.296Z,0.40
2023-05-02T11:27:30.976Z,0.50
2023-05-02T11:32:53.228Z,0.40
2023-05-02T11:38:04.572Z,0.52
2023-05-02T11:43:16.473Z,0.52
2023-05-02T11:48:18.755Z,0.60
2023-05-02T11:53:29.319Z,0.57
2023-05-02T11:58:32.855Z,0.65
2023-05-02T12:03:34.556Z,0.55
2023-05-02T12:08:36.012Z,0.90
2023-05-02T12:13:37.390Z,1.05
2023-05-02T12:18:38.809Z,0.52
2023-05-02T12:23:40.314Z,0.60
2023-05-02T12:28:57.026Z,0.70
2023-05-02T12:34:00.065Z,1.05
2023-05-02T12:39:01.996Z,0.73
2023-05-02T12:44:03.588Z,0.80
2023-05-02T12:49:09.292Z,0.60
2023-05-02T12:54:19.979Z,0.50
2023-05-02T12:59:28.468Z,0.52
2023-05-02T13:04:40.919Z,0.52
2023-05-02T13:09:42.518Z,0.35
2023-05-02T13:14:44.397Z,0.52
2023-05-02T13:19:57.735Z,0.50
2023-05-02T13:25:02.075Z,0.50
2023-05-02T13:30:06.786Z,0.50
2023-05-02T13:35:13.715Z,0.60
2023-05-02T13:40:15.126Z,0.75
2023-05-02T13:45:17.248Z,0.50
2023-05-02T13:50:18.631Z,0.70
2023-05-02T13:55:20.147Z,0.50
2023-05-02T14:00:21.575Z,0.82
2023-05-02T14:05:22.972Z,1.05
2023-05-02T14:10:24.721Z,0.60
2023-05-02T14:15:26.966Z,0.80
2023-05-02T14:20:28.379Z,0.60
2023-05-02T14:25:29.787Z,0.77
2023-05-02T14:30:34.157Z,0.70
2023-05-02T14:35:35.657Z,0.50
2023-05-02T14:40:37.992Z,0.75
2023-05-02T14:45:39.399Z,0.80
2023-05-02T14:50:40.850Z,0.80
2023-05-02T14:55:42.232Z,0.55
2023-05-02T15:00:43.673Z,0.40
2023-05-02T15:05:45.330Z,0.50
2023-05-02T15:10:46.926Z,0.40
2023-05-02T15:15:48.326Z,0.30
2023-05-02T15:20:49.692Z,0.30
2023-05-02T15:25:51.180Z,0.30
2023-05-02T15:30:52.562Z,0.50
2023-05-02T15:35:55.425Z,0.30
2023-05-02T15:40:57.542Z,0.40
2023-05-02T15:45:59.348Z,0.30
2023-05-02T15:51:02.219Z,0.32
2023-05-02T15:56:03.943Z,0.30
2023-05-02T16:01:05.694Z,0.30
2023-05-02T16:06:07.585Z,0.17
2023-05-02T16:11:09.047Z,0.20
2023-05-02T16:16:10.574Z,0.22
2023-05-02T16:21:11.951Z,0.17
2023-05-02T16:26:13.382Z,0.10
2023-05-02T16:31:15.110Z,0.20
2023-05-02T16:36:16.975Z,0.10
2023-05-02T16:41:18.348Z,0.20
2023-05-02T16:46:19.792Z,0.20
2023-05-02T16:51:21.198Z,0.30
2023-05-02T16:56:22.587Z,0.15
2023-05-02T17:01:24.082Z,0.10
2023-05-02T17:06:26.126Z,0.30
2023-05-02T17:11:28.344Z,0.40
2023-05-02T17:16:29.779Z,0.20
2023-05-02T17:21:31.249Z,0.20
2023-05-02T17:26:32.877Z,0.20
2023-05-02T17:31:34.353Z,0.28
2023-05-02T17:36:36.290Z,0.20
2023-05-02T17:41:37.824Z,0.40
2023-05-02T17:46:39.307Z,0.20
2023-05-02T17:51:40.806Z,0.22
2023-05-02T17:56:42.568Z,0.30
2023-05-02T18:01:43.974Z,0.30
2023-05-02T18:06:45.483Z,0.20
2023-05-02T18:11:47.096Z,0.20
2023-05-02T18:16:48.655Z,0.10
2023-05-02T18:21:50.177Z,0.30
2023-05-02T18:26:52.466Z,0.20
2023-05-02T18:31:54.097Z,0.10
2023-05-02T18:36:59.317Z,0.30
2023-05-02T18:42:02.772Z,0.20
2023-05-02T18:47:04.147Z,0.25
2023-05-02T18:52:05.551Z,0.10
2023-05-02T18:57:07.789Z,0.20
2023-05-02T19:02:09.249Z,0.20
2023-05-02T19:07:10.630Z,0.30
2023-05-02T19:12:12.013Z,0.20
2023-05-02T19:17:13.379Z,0.13
2023-05-02T19:22:15.101Z,0.10
2023-05-02T19:27:16.545Z,0.20
2023-05-02T19:32:17.949Z,0.10
2023-05-02T19:37:19.371Z,0.20
2023-05-02T19:42:20.766Z,0.20
2023-05-02T19:47:22.342Z,0.25
2023-05-02T19:52:24.213Z,0.30
2023-05-02T19:57:25.708Z,0.20
2023-05-02T20:02:27.322Z,0.20
2023-05-02T20:07:28.866Z,0.20
2023-05-02T20:12:30.417Z,0.20
2023-05-02T20:17:31.865Z,0.10
2023-05-02T20:22:33.711Z,0.20
2023-05-02T20:27:35.119Z,0.20
2023-05-02T20:32:36.963Z,0.30
2023-05-02T20:37:38.372Z,0.20
2023-05-02T20:42:42.236Z,0.20
2023-05-02T20:47:43.616Z,0.30
2023-05-02T20:52:45.136Z,0.30
2023-05-02T20:57:46.594Z,0.30
2023-05-02T21:02:48.090Z,0.15
2023-05-02T21:07:49.518Z,0.20
2023-05-02T21:12:50.938Z,0.30
2023-05-02T21:18:02.172Z,0.20
2023-05-02T21:23:03.727Z,0.20
2023-05-02T21:28:05.720Z,0.17
2023-05-02T21:33:07.143Z,0.20
2023-05-02T21:38:08.588Z,0.20
2023-05-02T21:43:09.960Z,0.15
2023-05-02T21:48:12.538Z,0.30
2023-05-02T21:53:14.024Z,0.13
2023-05-02T21:58:15.538Z,0.28
2023-05-02T22:03:17.513Z,0.20
2023-05-02T22:08:20.254Z,0.30
2023-05-02T22:13:23.892Z,0.30
2023-05-02T22:18:25.288Z,0.20
2023-05-02T22:23:26.721Z,0.30
2023-05-02T22:28:28.141Z,0.25
2023-05-02T22:33:29.545Z,0.20
2023-05-02T22:38:30.970Z,0.10
2023-05-02T22:43:32.498Z,0.28
2023-05-02T22:48:33.924Z,0.30
2023-05-02T22:53:35.292Z,0.30
2023-05-02T22:58:36.682Z,0.20
2023-05-02T23:03:38.219Z,0.15
2023-05-02T23:08:39.936Z,0.20
2023-05-02T23:13:41.599Z,0.25
2023-05-02T23:18:43.038Z,0.13
2023-05-02T23:23:44.410Z,0.20
2023-05-02T23:28:45.991Z,0.20
2023-05-02T23:33:47.369Z,0.20
2023-05-02T23:38:48.738Z,0.30
2023-05-02T23:43:50.108Z,0.20
2023-05-02T23:48:51.498Z,0.20
2023-05-02T23:53:52.892Z,0.20
2023-05-02T23:58:54.268Z,0.10
